Time;durP1;ratioP1;P1;durP2;ratioP2;P2;SDS_P1;SDS_P2;PMS_P1;PMS_P2;Temp;Humidity;BMP_temperature;BMP_pressure;BME280_temperature;BME280_humidity;BME280_pressure;Samples;Min_cycle;Max_cycle;Signal;HPM_P1;HPM_P2
2023/07/31 00:00:55;;;;;;;6.47;5.35;;;16.80;99.90;;;;;;5027485;28;20251;-82
2023/07/31 00:03:23;;;;;;;8.80;5.80;;;16.80;99.90;;;;;;5027741;28;20213;-80
2023/07/31 00:05:50;;;;;;;6.43;4.30;;;16.90;99.90;;;;;;5094822;28;21062;-81
2023/07/31 00:08:18;;;;;;;7.47;5.10;;;16.90;99.90;;;;;;5027229;28;20190;-81
2023/07/31 00:10:46;;;;;;;6.35;5.10;;;16.90;99.90;;;;;;5027168;28;20197;-82
2023/07/31 00:13:13;;;;;;;9.85;5.53;;;16.80;99.90;;;;;;5027417;28;20608;-82
2023/07/31 00:15:41;;;;;;;6.32;4.60;;;16.70;99.90;;;;;;5028032;28;20317;-81
2023/07/31 00:18:09;;;;;;;4.97;4.00;;;16.90;99.90;;;;;;5014747;28;20192;-82
2023/07/31 00:20:36;;;;;;;8.93;5.68;;;17.00;99.90;;;;;;5022558;28;20278;-81
2023/07/31 00:23:04;;;;;;;6.38;4.40;;;16.90;99.90;;;;;;5023997;28;20198;-81
2023/07/31 00:25:32;;;;;;;8.57;5.28;;;16.70;99.90;;;;;;5027233;28;20595;-82
2023/07/31 00:27:59;;;;;;;5.90;4.35;;;16.40;99.90;;;;;;5027149;28;20186;-83
2023/07/31 00:30:27;;;;;;;6.95;4.40;;;16.40;99.90;;;;;;5027106;28;20190;-81
2023/07/31 00:32:55;;;;;;;8.05;4.43;;;16.60;99.90;;;;;;5068390;27;20197;-81
2023/07/31 00:35:23;;;;;;;7.18;4.43;;;16.70;99.90;;;;;;5035089;28;20194;-82
2023/07/31 00:37:52;;;;;;;5.28;4.13;;;16.70;99.90;;;;;;5024504;28;20246;-82
2023/07/31 00:40:19;;;;;;;8.07;3.28;;;16.70;99.90;;;;;;5025523;28;20272;-82
2023/07/31 00:42:47;;;;;;;4.25;3.50;;;16.80;99.90;;;;;;5026985;28;20590;-82
2023/07/31 00:45:15;;;;;;;4.10;3.55;;;16.90;99.90;;;;;;5026685;28;20703;-81
2023/07/31 00:47:43;;;;;;;5.88;3.63;;;16.90;99.90;;;;;;5034632;28;20186;-82
2023/07/31 00:50:10;;;;;;;5.15;3.70;;;16.90;99.90;;;;;;5005981;28;20222;-82
2023/07/31 00:52:38;;;;;;;5.20;3.80;;;16.80;99.90;;;;;;5041365;28;20185;-82
2023/07/31 00:55:06;;;;;;;5.88;3.47;;;16.70;99.90;;;;;;5025928;28;20194;-81
2023/07/31 00:57:36;;;;;;;6.10;3.97;;;16.80;99.90;;;;;;5026792;28;20217;-82
2023/07/31 01:00:04;;;;;;;8.00;4.40;;;16.80;99.90;;;;;;5036839;28;20247;-81
2023/07/31 01:02:32;;;;;;;7.47;4.43;;;16.90;99.90;;;;;;5009027;28;20198;-82
2023/07/31 01:05:01;;;;;;;4.95;4.32;;;16.80;99.90;;;;;;5025629;28;20572;-81
2023/07/31 01:07:42;;;;;;;6.63;4.47;;;16.80;99.90;;;;;;5026437;28;20623;-81
2023/07/31 01:10:20;;;;;;;6.85;4.53;;;16.70;99.90;;;;;;5026532;28;20815;-82
2023/07/31 01:12:49;;;;;;;4.85;3.90;;;16.50;99.90;;;;;;5041575;28;20186;-82
2023/07/31 01:15:17;;;;;;;5.97;4.03;;;16.40;99.90;;;;;;5024168;28;20721;-82
2023/07/31 01:17:45;;;;;;;5.07;3.95;;;16.50;99.90;;;;;;5008029;28;20281;-81
2023/07/31 01:20:26;;;;;;;5.63;3.70;;;16.50;99.90;;;;;;5026719;27;20214;-81
2023/07/31 01:23:06;;;;;;;6.18;4.32;;;16.30;99.90;;;;;;5021894;28;20206;-82
2023/07/31 01:25:45;;;;;;;7.45;4.85;;;15.90;99.90;;;;;;5031900;28;20597;-82
2023/07/31 01:28:20;;;;;;;5.63;4.53;;;16.00;99.90;;;;;;5025003;28;20467;-82
2023/07/31 01:30:49;;;;;;;7.35;3.92;;;16.10;99.90;;;;;;5024816;28;20212;-82
2023/07/31 01:33:17;;;;;;;7.25;4.18;;;16.00;99.90;;;;;;5024360;28;20269;-81
2023/07/31 01:35:46;;;;;;;6.63;3.80;;;16.10;99.90;;;;;;5323232;22;20314;-86
2023/07/31 01:38:14;;;;;;;4.10;3.47;;;16.20;99.90;;;;;;4947325;28;20193;-86
2023/07/31 01:40:42;;;;;;;5.70;3.67;;;16.20;99.90;;;;;;4967285;28;20199;-85
2023/07/31 01:43:10;;;;;;;5.25;3.55;;;16.30;99.90;;;;;;4967602;28;20216;-86
2023/07/31 01:45:37;;;;;;;4.90;3.50;;;16.30;99.90;;;;;;4968123;28;20746;-85
2023/07/31 01:48:05;;;;;;;11.00;4.13;;;16.30;99.90;;;;;;4967822;28;20192;-85
2023/07/31 01:50:32;;;;;;;5.97;4.38;;;16.30;99.90;;;;;;4967513;28;20293;-87
2023/07/31 01:53:00;;;;;;;10.82;6.00;;;16.20;99.90;;;;;;4967645;28;20204;-85
2023/07/31 01:55:27;;;;;;;7.65;5.35;;;15.90;99.90;;;;;;4967148;28;20646;-84
2023/07/31 01:57:55;;;;;;;7.03;5.40;;;15.60;99.90;;;;;;4967339;28;20207;-84
2023/07/31 02:00:22;;;;;;;7.40;4.95;;;15.50;99.90;;;;;;4965733;28;20200;-86
2023/07/31 02:02:50;;;;;;;10.07;5.60;;;15.50;99.90;;;;;;4976303;28;20288;-85
2023/07/31 02:05:19;;;;;;;10.40;5.88;;;15.30;99.90;;;;;;4967082;28;20188;-85
2023/07/31 02:07:46;;;;;;;6.55;4.95;;;15.40;99.90;;;;;;4967328;28;20191;-86
2023/07/31 02:10:14;;;;;;;9.85;5.45;;;15.50;99.90;;;;;;4966101;28;20191;-84
2023/07/31 02:12:42;;;;;;;8.40;5.13;;;15.60;99.90;;;;;;4967185;28;20212;-86
2023/07/31 02:15:09;;;;;;;7.90;4.85;;;15.70;99.90;;;;;;4951577;28;20191;-86
2023/07/31 02:17:37;;;;;;;7.13;3.95;;;15.60;99.90;;;;;;4956710;28;20211;-85
2023/07/31 02:20:06;;;;;;;7.13;4.60;;;15.80;99.90;;;;;;4970430;28;20654;-86
2023/07/31 02:22:33;;;;;;;9.25;5.85;;;15.80;99.90;;;;;;4969878;28;20747;-85
2023/07/31 02:25:02;;;;;;;9.25;6.53;;;15.60;99.90;;;;;;4969144;28;20314;-87
2023/07/31 02:27:30;;;;;;;10.32;5.57;;;15.30;99.90;;;;;;4970379;28;20200;-85
2023/07/31 02:29:59;;;;;;;6.32;4.47;;;15.30;99.90;;;;;;4979866;28;20226;-85
2023/07/31 02:32:27;;;;;;;8.82;4.78;;;15.40;99.90;;;;;;4969919;28;20203;-85
2023/07/31 02:34:54;;;;;;;7.15;4.00;;;15.50;99.90;;;;;;5029152;28;20194;-86
2023/07/31 02:37:22;;;;;;;5.82;4.47;;;15.60;99.90;;;;;;4970041;28;20294;-85
2023/07/31 02:39:49;;;;;;;8.30;4.70;;;15.70;99.90;;;;;;4969144;28;20210;-85
2023/07/31 02:42:17;;;;;;;7.10;4.35;;;15.80;99.90;;;;;;4968756;28;20235;-86
2023/07/31 02:44:44;;;;;;;7.45;4.88;;;15.80;99.90;;;;;;4953246;28;20216;-85
2023/07/31 02:47:12;;;;;;;7.70;4.97;;;15.80;99.90;;;;;;4970026;28;20184;-85
2023/07/31 02:49:39;;;;;;;6.20;4.55;;;15.70;99.90;;;;;;4970287;28;20267;-87
2023/07/31 02:52:07;;;;;;;7.75;4.43;;;15.80;99.90;;;;;;4970736;28;20207;-85
2023/07/31 02:54:34;;;;;;;7.22;5.10;;;15.80;99.90;;;;;;4968453;28;20622;-86
2023/07/31 02:57:02;;;;;;;6.38;5.03;;;15.80;99.90;;;;;;4968608;28;20235;-85
2023/07/31 02:59:30;;;;;;;9.63;5.50;;;15.80;99.90;;;;;;4969884;28;20203;-86
2023/07/31 03:01:57;;;;;;;9.05;6.07;;;15.70;99.90;;;;;;4969866;28;20196;-86
2023/07/31 03:04:25;;;;;;;8.02;6.03;;;15.70;99.90;;;;;;4949333;28;20232;-84
2023/07/31 03:06:53;;;;;;;9.15;6.18;;;15.50;99.90;;;;;;4969558;28;20676;-85
2023/07/31 03:09:20;;;;;;;9.82;6.25;;;15.40;99.90;;;;;;4975471;28;20184;-85
2023/07/31 03:11:48;;;;;;;9.05;5.72;;;15.40;99.90;;;;;;4952947;28;20677;-83
2023/07/31 03:14:16;;;;;;;8.70;6.47;;;15.50;99.90;;;;;;4966181;28;20201;-84
2023/07/31 03:16:44;;;;;;;6.95;5.00;;;15.60;99.90;;;;;;4968435;28;20195;-84
2023/07/31 03:19:12;;;;;;;10.88;5.28;;;15.70;99.90;;;;;;5000022;28;20192;-84
2023/07/31 03:21:39;;;;;;;5.47;4.40;;;15.80;99.90;;;;;;4965506;28;20288;-84
2023/07/31 03:24:07;;;;;;;7.65;5.00;;;15.80;99.90;;;;;;4959153;28;20219;-85
2023/07/31 03:26:36;;;;;;;8.25;5.60;;;15.90;99.90;;;;;;4959866;28;20295;-85
2023/07/31 03:29:04;;;;;;;6.75;4.95;;;15.80;99.90;;;;;;4969674;28;20219;-84
2023/07/31 03:31:32;;;;;;;6.63;5.10;;;15.50;99.90;;;;;;4968748;28;20204;-85
2023/07/31 03:34:00;;;;;;;8.55;6.63;;;15.10;99.90;;;;;;4954484;28;20196;-84
2023/07/31 03:36:27;;;;;;;6.63;4.50;;;15.20;99.90;;;;;;4952026;28;20243;-85
2023/07/31 03:38:55;;;;;;;7.28;4.30;;;15.40;99.90;;;;;;4968018;28;20193;-86
2023/07/31 03:41:23;;;;;;;7.95;5.70;;;15.50;99.90;;;;;;4969489;28;20756;-84
2023/07/31 03:43:52;;;;;;;8.63;5.82;;;15.40;99.90;;;;;;4949244;28;20581;-85
2023/07/31 03:46:20;;;;;;;11.18;7.25;;;15.40;99.90;;;;;;4958484;28;20905;-86
2023/07/31 03:48:49;;;;;;;12.43;7.88;;;15.40;99.90;;;;;;4963669;28;20188;-86
2023/07/31 03:51:17;;;;;;;9.07;5.88;;;15.30;99.90;;;;;;4968054;28;20188;-83
2023/07/31 03:53:45;;;;;;;9.18;5.80;;;15.50;99.90;;;;;;4969355;28;20188;-86
2023/07/31 03:56:14;;;;;;;8.10;5.07;;;15.60;99.90;;;;;;4968399;28;20198;-86
2023/07/31 03:58:41;;;;;;;5.32;4.43;;;15.70;99.90;;;;;;4974591;28;20212;-86
2023/07/31 04:01:09;;;;;;;7.50;5.70;;;15.70;99.90;;;;;;4968357;28;20267;-86
2023/07/31 04:03:37;;;;;;;11.60;8.90;;;15.80;99.90;;;;;;4967672;28;20208;-86
2023/07/31 04:06:06;;;;;;;10.35;6.35;;;15.70;99.90;;;;;;4967743;28;20204;-85
2023/07/31 04:08:34;;;;;;;11.23;7.30;;;15.70;99.90;;;;;;4967660;28;20275;-86
2023/07/31 04:11:02;;;;;;;12.05;8.52;;;15.60;99.90;;;;;;4967404;28;20192;-85
2023/07/31 04:13:30;;;;;;;10.20;7.43;;;15.40;99.90;;;;;;4951724;28;20196;-86
2023/07/31 04:15:57;;;;;;;13.57;7.80;;;15.50;99.90;;;;;;4969478;28;20269;-86
2023/07/31 04:18:26;;;;;;;13.02;7.82;;;15.50;99.90;;;;;;4968819;28;20219;-85
2023/07/31 04:20:54;;;;;;;14.43;8.75;;;15.50;99.90;;;;;;4966997;28;20188;-84
2023/07/31 04:23:21;;;;;;;12.80;7.70;;;15.50;99.90;;;;;;4965882;28;20691;-85
2023/07/31 04:25:49;;;;;;;10.50;8.23;;;15.40;99.90;;;;;;4967621;28;20196;-85
2023/07/31 04:28:17;;;;;;;12.05;8.00;;;15.30;99.90;;;;;;4968560;28;20271;-84
2023/07/31 04:30:47;;;;;;;11.07;8.57;;;15.30;99.90;;;;;;4965069;28;20565;-84
2023/07/31 04:33:17;;;;;;;14.55;10.23;;;15.30;99.90;;;;;;4967192;28;20180;-83
2023/07/31 04:35:54;;;;;;;15.43;11.68;;;15.40;99.90;;;;;;4953557;28;20232;-85
2023/07/31 04:38:22;;;;;;;14.80;10.70;;;15.40;99.90;;;;;;4968351;28;20195;-85
2023/07/31 04:40:49;;;;;;;16.77;10.32;;;15.50;99.90;;;;;;4968587;28;20227;-84
2023/07/31 04:43:17;;;;;;;19.63;13.82;;;15.50;99.90;;;;;;4948040;28;20666;-85
2023/07/31 04:45:49;;;;;;;15.55;11.27;;;15.40;99.90;;;;;;4956590;28;20258;-87
2023/07/31 04:48:17;;;;;;;12.55;9.68;;;15.40;99.90;;;;;;4966866;28;20191;-86
2023/07/31 04:50:44;;;;;;;13.30;10.05;;;15.50;99.90;;;;;;4949646;29;20213;-85
2023/07/31 04:53:12;;;;;;;17.27;12.77;;;15.50;99.90;;;;;;5046805;28;20262;-84
2023/07/31 04:55:45;;;;;;;21.80;15.60;;;15.40;99.90;;;;;;4968316;28;20665;-84
2023/07/31 04:58:14;;;;;;;16.58;12.10;;;15.30;99.90;;;;;;4965447;28;20204;-84
2023/07/31 05:00:42;;;;;;;18.42;13.05;;;15.40;99.90;;;;;;4967997;28;20211;-86
2023/07/31 05:03:11;;;;;;;16.85;11.00;;;15.30;99.90;;;;;;4967131;28;20915;-85
2023/07/31 05:05:39;;;;;;;15.88;11.15;;;15.30;99.90;;;;;;4968044;28;20204;-84
2023/07/31 05:08:06;;;;;;;15.23;11.50;;;15.40;99.90;;;;;;4967113;28;20199;-85
2023/07/31 05:10:34;;;;;;;16.98;11.43;;;15.50;99.90;;;;;;4968096;28;20188;-85
2023/07/31 05:13:01;;;;;;;17.65;12.05;;;15.30;99.90;;;;;;4964057;28;20197;-85
2023/07/31 05:15:29;;;;;;;17.05;11.40;;;15.20;99.90;;;;;;5038020;28;20279;-86
2023/07/31 05:17:57;;;;;;;17.15;12.00;;;15.20;99.90;;;;;;4966663;28;20198;-86
2023/07/31 05:20:24;;;;;;;19.98;14.75;;;15.20;99.90;;;;;;4968457;28;20283;-85
2023/07/31 05:22:52;;;;;;;22.10;15.55;;;15.20;99.90;;;;;;4957201;28;20196;-85
2023/07/31 05:25:19;;;;;;;19.60;13.50;;;15.30;99.90;;;;;;5036338;28;20215;-85
2023/07/31 05:27:47;;;;;;;16.52;12.30;;;15.40;99.90;;;;;;4982032;28;20211;-85
2023/07/31 05:30:14;;;;;;;17.40;11.88;;;15.50;99.90;;;;;;4967643;28;20222;-86
2023/07/31 05:32:42;;;;;;;18.08;12.18;;;15.50;99.90;;;;;;4967652;28;20670;-84
2023/07/31 05:35:09;;;;;;;17.52;11.35;;;15.50;99.90;;;;;;4964313;28;20191;-84
2023/07/31 05:37:37;;;;;;;17.70;11.60;;;15.50;99.90;;;;;;4965871;28;20227;-85
2023/07/31 05:40:05;;;;;;;16.15;11.90;;;15.60;99.90;;;;;;4962349;28;20205;-84
2023/07/31 05:42:33;;;;;;;14.50;10.05;;;15.70;99.90;;;;;;5033659;28;20623;-85
2023/07/31 05:45:00;;;;;;;17.25;11.82;;;15.80;99.90;;;;;;4967444;28;20935;-85
2023/07/31 05:47:28;;;;;;;18.25;11.80;;;15.80;99.90;;;;;;4967543;28;20192;-86
2023/07/31 05:49:55;;;;;;;16.60;11.80;;;15.80;99.90;;;;;;4965635;28;20188;-84
2023/07/31 05:52:23;;;;;;;15.90;10.98;;;15.70;99.90;;;;;;4976407;28;20284;-84
2023/07/31 05:54:50;;;;;;;21.05;13.30;;;15.70;99.90;;;;;;4967331;28;20535;-85
2023/07/31 05:57:18;;;;;;;21.65;13.40;;;15.70;99.90;;;;;;5050664;28;20200;-85
2023/07/31 05:59:45;;;;;;;18.20;12.90;;;15.50;99.90;;;;;;4964181;28;20184;-83
2023/07/31 06:02:13;;;;;;;16.85;12.10;;;15.40;99.90;;;;;;4958408;28;20286;-85
2023/07/31 06:04:40;;;;;;;17.60;12.45;;;15.50;99.90;;;;;;4965810;28;20208;-85
2023/07/31 06:07:08;;;;;;;18.52;12.77;;;15.50;99.90;;;;;;4973188;28;20192;-85
2023/07/31 06:09:36;;;;;;;21.17;14.18;;;15.40;99.90;;;;;;4966926;28;20184;-85
2023/07/31 06:12:03;;;;;;;17.15;11.98;;;15.40;99.90;;;;;;4979091;28;20184;-85
2023/07/31 06:14:31;;;;;;;19.80;13.95;;;15.50;99.90;;;;;;4963400;28;20192;-85
2023/07/31 06:16:58;;;;;;;21.98;15.57;;;15.60;99.90;;;;;;5025553;28;20201;-85
2023/07/31 06:19:26;;;;;;;21.55;14.73;;;15.40;99.90;;;;;;4966968;28;20560;-85
2023/07/31 06:21:53;;;;;;;23.13;14.05;;;15.30;99.90;;;;;;4960317;28;20238;-85
2023/07/31 06:24:22;;;;;;;20.00;13.55;;;15.30;99.90;;;;;;4969113;28;20689;-85
2023/07/31 06:26:50;;;;;;;22.92;15.80;;;15.40;99.90;;;;;;4969205;28;20219;-86
2023/07/31 06:29:18;;;;;;;21.25;14.85;;;15.50;99.90;;;;;;5052867;28;20561;-85
2023/07/31 06:31:45;;;;;;;19.80;13.82;;;15.40;99.90;;;;;;4967942;28;20188;-86
2023/07/31 06:34:13;;;;;;;19.63;12.82;;;15.50;99.90;;;;;;4967102;28;20207;-86
2023/07/31 06:36:41;;;;;;;19.15;12.15;;;15.50;99.90;;;;;;4967093;28;20317;-86
2023/07/31 06:39:09;;;;;;;23.70;13.80;;;15.40;99.90;;;;;;4965862;28;20191;-85
2023/07/31 06:41:36;;;;;;;23.80;13.98;;;15.30;99.90;;;;;;4965100;28;20188;-85
2023/07/31 06:44:06;;;;;;;21.77;14.45;;;15.30;99.90;;;;;;4956822;28;20287;-85
2023/07/31 06:46:33;;;;;;;21.23;14.25;;;15.30;99.90;;;;;;4963628;28;20288;-84
2023/07/31 06:49:01;;;;;;;19.17;13.30;;;15.30;99.90;;;;;;4960924;28;20189;-85
2023/07/31 06:51:31;;;;;;;21.02;14.70;;;15.40;99.90;;;;;;5039832;28;20305;-86
2023/07/31 06:53:58;;;;;;;25.25;16.60;;;15.40;99.90;;;;;;4966316;28;20195;-85
2023/07/31 06:56:27;;;;;;;22.25;14.65;;;15.50;99.90;;;;;;5049325;28;20556;-86
2023/07/31 06:58:55;;;;;;;20.95;14.82;;;15.40;99.90;;;;;;4965802;28;20960;-85
2023/07/31 07:01:23;;;;;;;23.98;15.10;;;15.50;99.90;;;;;;4969703;28;20737;-84
2023/07/31 07:03:51;;;;;;;21.88;13.98;;;15.40;99.90;;;;;;4948867;28;20940;-86
2023/07/31 07:06:18;;;;;;;23.10;15.25;;;15.50;99.90;;;;;;5044957;28;20204;-86
2023/07/31 07:08:46;;;;;;;20.75;14.68;;;15.50;99.90;;;;;;4961046;28;20238;-84
2023/07/31 07:11:13;;;;;;;21.00;14.68;;;15.50;99.90;;;;;;4962608;28;20298;-85
2023/07/31 07:13:41;;;;;;;22.48;15.75;;;15.50;99.90;;;;;;4962223;28;20207;-85
2023/07/31 07:16:10;;;;;;;22.55;14.68;;;15.50;99.90;;;;;;4962488;28;20663;-84
2023/07/31 07:18:38;;;;;;;22.08;15.73;;;15.50;99.90;;;;;;4962237;28;20199;-84
2023/07/31 07:21:17;;;;;;;23.08;14.85;;;15.60;99.90;;;;;;4977450;28;20216;-84
2023/07/31 07:23:45;;;;;;;22.33;15.00;;;15.70;99.90;;;;;;4960741;28;20189;-85
2023/07/31 07:26:13;;;;;;;23.95;15.30;;;15.60;99.90;;;;;;4976077;28;20220;-84
2023/07/31 07:28:41;;;;;;;23.40;15.45;;;15.60;99.90;;;;;;4959410;28;20613;-84
2023/07/31 07:31:10;;;;;;;18.88;13.63;;;15.70;99.90;;;;;;4961577;28;20188;-85
2023/07/31 07:33:40;;;;;;;23.85;14.70;;;15.80;99.90;;;;;;4962855;28;20188;-84
2023/07/31 07:36:17;;;;;;;18.73;13.70;;;15.80;99.90;;;;;;4961707;28;20244;-85
2023/07/31 07:38:45;;;;;;;19.05;13.63;;;15.90;99.90;;;;;;4974116;28;20203;-86
2023/07/31 07:41:12;;;;;;;20.02;13.35;;;15.80;99.90;;;;;;4961922;28;20528;-84
2023/07/31 07:43:43;;;;;;;18.70;13.57;;;15.80;99.90;;;;;;4962399;28;20185;-85
2023/07/31 07:46:10;;;;;;;16.63;12.70;;;16.00;99.90;;;;;;4961623;28;20692;-85
2023/07/31 07:48:38;;;;;;;16.35;10.63;;;16.00;99.90;;;;;;4961835;28;20193;-84
2023/07/31 07:51:08;;;;;;;17.08;11.40;;;16.00;99.90;;;;;;4964173;28;20283;-85
2023/07/31 07:53:36;;;;;;;15.90;12.23;;;16.00;99.90;;;;;;4961831;28;20198;-84
2023/07/31 07:56:04;;;;;;;15.48;11.38;;;16.00;99.90;;;;;;4969342;28;20575;-84
2023/07/31 07:58:33;;;;;;;16.88;12.35;;;16.00;99.90;;;;;;4969320;28;20188;-85
2023/07/31 08:01:02;;;;;;;16.65;10.48;;;15.90;99.90;;;;;;4969265;28;20195;-84
2023/07/31 08:03:32;;;;;;;13.57;10.38;;;16.00;99.90;;;;;;4965756;28;20204;-85
2023/07/31 08:06:01;;;;;;;16.92;12.73;;;16.10;99.90;;;;;;4969139;28;20243;-84
2023/07/31 08:08:30;;;;;;;16.25;11.73;;;16.20;99.90;;;;;;4967064;28;20192;-84
2023/07/31 08:10:57;;;;;;;14.07;10.55;;;16.30;99.90;;;;;;4968658;28;20215;-84
2023/07/31 08:13:26;;;;;;;15.93;10.70;;;16.30;99.90;;;;;;4968452;28;20184;-85
2023/07/31 08:15:55;;;;;;;14.60;10.35;;;16.30;99.90;;;;;;4969230;28;20305;-84
2023/07/31 08:18:22;;;;;;;14.40;10.95;;;16.30;99.90;;;;;;4968759;28;20204;-84
2023/07/31 08:20:50;;;;;;;14.45;10.15;;;16.20;99.90;;;;;;4962989;28;20211;-84
2023/07/31 08:23:18;;;;;;;13.60;10.25;;;16.30;99.90;;;;;;4968635;28;20246;-83
2023/07/31 08:25:46;;;;;;;13.43;10.25;;;16.40;99.90;;;;;;4969003;28;20871;-84
2023/07/31 08:28:15;;;;;;;15.07;10.45;;;16.40;99.90;;;;;;4969397;28;20646;-85
2023/07/31 08:30:43;;;;;;;12.77;8.80;;;16.40;99.90;;;;;;4951529;28;20654;-84
2023/07/31 08:33:11;;;;;;;12.98;9.13;;;16.40;99.90;;;;;;4967338;28;20827;-85
2023/07/31 08:35:38;;;;;;;14.07;9.82;;;16.40;99.90;;;;;;4967089;28;20192;-84
2023/07/31 08:38:06;;;;;;;15.07;9.90;;;16.50;99.90;;;;;;4968464;28;20557;-85
2023/07/31 08:40:38;;;;;;;12.18;9.23;;;16.40;99.90;;;;;;4964550;28;20299;-85
2023/07/31 08:43:07;;;;;;;13.00;8.52;;;16.50;99.90;;;;;;4966957;28;20204;-85
2023/07/31 08:45:35;;;;;;;13.40;9.80;;;16.70;99.90;;;;;;4968377;28;20197;-85
2023/07/31 08:48:03;;;;;;;12.32;8.80;;;16.80;99.90;;;;;;4967988;28;20257;-83
2023/07/31 08:50:31;;;;;;;12.68;9.18;;;16.80;99.90;;;;;;4967138;28;20184;-84
2023/07/31 08:53:00;;;;;;;13.77;8.85;;;16.90;99.90;;;;;;4968204;28;20628;-84
2023/07/31 08:55:31;;;;;;;14.35;8.52;;;16.90;99.90;;;;;;4970994;28;20204;-84
2023/07/31 08:57:59;;;;;;;10.18;7.60;;;17.00;99.90;;;;;;4960329;28;20210;-81
2023/07/31 09:00:28;;;;;;;13.68;9.18;;;17.10;99.90;;;;;;4956311;28;20199;-84
2023/07/31 09:03:08;;;;;;;11.43;8.30;;;17.10;99.90;;;;;;4954551;28;20280;-84
2023/07/31 09:05:39;;;;;;;13.73;9.45;;;17.20;99.90;;;;;;4961794;28;20579;-83
2023/07/31 09:08:09;;;;;;;12.45;8.65;;;17.20;99.90;;;;;;4956721;28;20192;-85
2023/07/31 09:10:43;;;;;;;10.32;7.82;;;17.50;99.90;;;;;;4964577;28;20257;-84
2023/07/31 09:13:15;;;;;;;9.40;6.85;;;17.50;99.90;;;;;;4977696;28;20188;-83
2023/07/31 09:15:48;;;;;;;11.38;7.45;;;17.40;99.90;;;;;;4949334;28;20295;-83
2023/07/31 09:18:19;;;;;;;9.13;7.13;;;17.30;99.90;;;;;;4959392;28;20196;-84
2023/07/31 09:21:07;;;;;;;11.23;7.68;;;17.30;99.90;;;;;;4959292;28;20184;-83
2023/07/31 09:23:45;;;;;;;10.32;7.63;;;17.20;99.90;;;;;;4945070;28;20212;-84
2023/07/31 09:26:30;;;;;;;11.35;7.00;;;17.10;99.90;;;;;;4959007;28;20569;-84
2023/07/31 09:29:04;;;;;;;9.90;6.63;;;17.30;99.90;;;;;;4959081;28;20562;-84
2023/07/31 09:31:43;;;;;;;8.70;6.13;;;17.40;99.90;;;;;;4964105;28;20195;-83
2023/07/31 09:34:11;;;;;;;8.52;5.70;;;17.50;99.90;;;;;;4949127;28;20279;-82
2023/07/31 09:36:47;;;;;;;6.82;5.15;;;17.90;99.90;;;;;;4967368;28;20273;-83
2023/07/31 09:39:17;;;;;;;7.03;5.10;;;18.20;99.90;;;;;;4965049;28;20195;-83
2023/07/31 09:41:55;;;;;;;6.78;4.97;;;18.30;99.90;;;;;;4959144;28;20214;-82
2023/07/31 09:44:40;;;;;;;6.00;5.25;;;18.40;99.90;;;;;;4963789;28;20199;-83
2023/07/31 09:47:23;;;;;;;8.52;5.75;;;18.50;99.90;;;;;;4968431;28;20231;-85
2023/07/31 09:49:52;;;;;;;5.65;4.50;;;18.60;99.90;;;;;;4966390;28;20180;-84
2023/07/31 09:52:27;;;;;;;5.93;4.80;;;18.70;99.90;;;;;;4958861;28;20191;-83
2023/07/31 09:54:57;;;;;;;5.25;4.50;;;18.70;99.90;;;;;;4959723;28;20251;-83
2023/07/31 09:57:31;;;;;;;5.68;4.80;;;18.70;99.90;;;;;;4944536;28;20196;-84
2023/07/31 09:59:59;;;;;;;7.35;5.20;;;18.60;99.90;;;;;;4956788;28;20254;-82
2023/07/31 10:02:38;;;;;;;6.88;4.93;;;18.50;99.90;;;;;;4965117;28;20191;-83
2023/07/31 10:05:07;;;;;;;7.47;5.05;;;18.70;99.90;;;;;;4976335;28;20196;-83
2023/07/31 10:07:41;;;;;;;5.95;4.88;;;18.80;99.90;;;;;;4959674;28;20196;-84
2023/07/31 10:10:10;;;;;;;8.77;5.72;;;19.00;99.90;;;;;;4970840;28;20210;-83
2023/07/31 10:12:42;;;;;;;9.00;6.13;;;19.40;99.90;;;;;;4962905;28;20196;-83
2023/07/31 10:15:11;;;;;;;6.75;5.03;;;19.50;99.90;;;;;;4963152;28;20184;-83
2023/07/31 10:17:48;;;;;;;8.05;5.03;;;19.50;99.90;;;;;;4965636;28;20681;-85
2023/07/31 10:20:16;;;;;;;5.43;4.30;;;19.40;99.90;;;;;;4961673;28;20559;-83
2023/07/31 10:22:47;;;;;;;5.03;4.50;;;19.20;99.90;;;;;;4964502;28;20188;-84
2023/07/31 10:25:17;;;;;;;7.28;4.93;;;19.10;99.90;;;;;;4961978;28;20250;-84
2023/07/31 10:27:47;;;;;;;5.85;4.70;;;19.20;99.90;;;;;;4964282;28;20190;-83
2023/07/31 10:30:18;;;;;;;9.38;4.13;;;19.20;99.90;;;;;;4963576;28;20184;-84
2023/07/31 10:32:50;;;;;;;7.13;4.28;;;19.10;99.90;;;;;;4962084;28;20195;-85
2023/07/31 10:35:18;;;;;;;5.63;4.40;;;19.30;99.90;;;;;;4964335;28;20188;-84
2023/07/31 10:37:46;;;;;;;4.75;4.07;;;19.40;99.90;;;;;;4960464;28;20274;-84
2023/07/31 10:40:28;;;;;;;4.45;3.90;;;19.50;99.90;;;;;;4963305;28;20219;-83
2023/07/31 10:43:00;;;;;;;6.20;4.70;;;19.60;99.90;;;;;;4983355;28;20204;-83
2023/07/31 10:45:36;;;;;;;4.88;3.97;;;19.80;99.90;;;;;;4958562;28;20205;-83
2023/07/31 10:48:14;;;;;;;5.55;4.00;;;19.70;99.90;;;;;;4961544;28;20238;-83
2023/07/31 10:50:54;;;;;;;6.18;4.30;;;19.90;99.90;;;;;;4961794;28;20527;-84
2023/07/31 10:53:28;;;;;;;5.65;3.92;;;19.80;99.90;;;;;;4959429;28;20269;-84
2023/07/31 10:56:04;;;;;;;6.45;4.15;;;20.10;99.90;;;;;;4968761;28;20203;-83
2023/07/31 10:58:36;;;;;;;5.72;3.88;;;20.20;99.90;;;;;;4980372;28;20219;-84
2023/07/31 11:01:10;;;;;;;9.70;4.40;;;20.30;99.90;;;;;;4965655;28;20211;-84
2023/07/31 11:03:46;;;;;;;5.88;4.25;;;20.50;99.90;;;;;;4944266;28;20207;-84
2023/07/31 11:06:19;;;;;;;5.22;3.63;;;20.60;99.90;;;;;;4958070;28;20200;-84
2023/07/31 11:08:48;;;;;;;4.82;3.05;;;20.50;99.90;;;;;;4967551;28;20278;-82
2023/07/31 11:11:20;;;;;;;4.70;3.60;;;20.20;99.90;;;;;;4958747;28;20605;-85
2023/07/31 11:13:53;;;;;;;5.13;3.38;;;20.10;99.90;;;;;;4965819;28;20196;-82
2023/07/31 11:16:23;;;;;;;4.05;3.33;;;19.80;99.90;;;;;;4968706;28;20192;-84
2023/07/31 11:18:53;;;;;;;5.15;3.47;;;19.80;99.90;;;;;;4967252;28;20208;-83
2023/07/31 11:21:23;;;;;;;5.15;3.67;;;19.80;99.90;;;;;;4969856;28;20192;-84
2023/07/31 11:23:53;;;;;;;5.90;3.45;;;19.80;99.90;;;;;;4965813;28;20201;-85
2023/07/31 11:26:28;;;;;;;7.43;3.65;;;19.90;99.90;;;;;;4959339;28;20205;-84
2023/07/31 11:28:57;;;;;;;5.63;3.22;;;19.90;99.90;;;;;;4968686;28;20188;-84
2023/07/31 11:31:24;;;;;;;5.57;3.47;;;19.90;99.90;;;;;;4968819;28;20188;-84
2023/07/31 11:34:05;;;;;;;5.13;3.75;;;20.00;99.90;;;;;;4992693;28;20189;-84
2023/07/31 11:36:32;;;;;;;3.90;3.30;;;20.10;99.90;;;;;;4968401;28;20228;-84
2023/07/31 11:39:10;;;;;;;4.05;3.30;;;20.20;99.90;;;;;;4967848;28;20316;-83
2023/07/31 11:41:41;;;;;;;4.57;3.63;;;20.30;99.90;;;;;;4969407;28;20192;-85
2023/07/31 11:44:08;;;;;;;3.60;3.00;;;20.20;99.90;;;;;;4968348;28;20192;-84
2023/07/31 11:46:53;;;;;;;4.97;3.17;;;20.20;99.90;;;;;;4968518;28;20245;-84
2023/07/31 11:49:21;;;;;;;7.30;3.70;;;20.10;99.90;;;;;;4968018;28;20827;-84
2023/07/31 11:51:49;;;;;;;7.00;3.42;;;20.00;99.90;;;;;;4970017;28;20192;-85
2023/07/31 11:54:17;;;;;;;4.15;3.20;;;19.90;99.90;;;;;;4970149;28;20562;-83
2023/07/31 11:56:46;;;;;;;5.25;3.17;;;20.00;99.90;;;;;;4969195;28;20222;-85
2023/07/31 11:59:13;;;;;;;5.15;2.30;;;20.00;99.90;;;;;;4969116;28;20192;-84
2023/07/31 12:01:41;;;;;;;2.63;1.30;;;19.70;99.90;;;;;;4969368;28;20192;-84
2023/07/31 12:04:09;;;;;;;2.47;1.50;;;19.10;99.90;;;;;;4968213;28;20216;-84
2023/07/31 12:06:38;;;;;;;2.35;1.30;;;18.90;99.90;;;;;;4968767;28;20208;-85
2023/07/31 12:09:08;;;;;;;1.77;1.20;;;18.60;99.90;;;;;;4970008;28;20180;-83
2023/07/31 12:11:47;;;;;;;3.17;1.10;;;18.50;99.90;;;;;;4968020;28;20245;-84
2023/07/31 12:14:28;;;;;;;3.80;1.17;;;18.50;99.90;;;;;;4961025;28;20190;-84
2023/07/31 12:17:03;;;;;;;5.10;1.42;;;18.40;99.90;;;;;;4967889;28;20693;-85
2023/07/31 12:19:34;;;;;;;16.75;2.17;;;18.20;99.90;;;;;;4966102;28;20203;-83
2023/07/31 12:22:10;;;;;;;13.13;2.30;;;17.80;99.90;;;;;;4967771;28;20570;-83
2023/07/31 12:24:45;;;;;;;5.60;2.03;;;17.80;99.90;;;;;;4945296;28;20200;-85
2023/07/31 12:27:34;;;;;;;13.27;2.90;;;17.40;99.90;;;;;;4941699;28;20213;-85
2023/07/31 12:30:05;;;;;;;10.52;2.38;;;17.30;99.90;;;;;;4950998;28;20165;-84
2023/07/31 12:32:51;;;;;;;8.25;2.53;;;17.40;99.90;;;;;;4955155;28;20215;-85
2023/07/31 12:35:24;;;;;;;7.10;1.80;;;17.20;99.90;;;;;;4965043;28;20306;-84
2023/07/31 12:38:01;;;;;;;4.85;1.65;;;17.30;99.90;;;;;;4966083;28;20188;-85
2023/07/31 12:40:29;;;;;;;4.00;1.73;;;17.40;99.90;;;;;;4949999;29;20201;-86
2023/07/31 12:43:05;;;;;;;5.07;1.60;;;17.30;99.90;;;;;;4949906;28;20189;-85
2023/07/31 12:45:33;;;;;;;7.47;2.28;;;17.60;99.90;;;;;;4949701;28;20640;-84
2023/07/31 12:48:01;;;;;;;3.65;1.63;;;17.50;99.90;;;;;;4950008;29;20181;-85
2023/07/31 12:50:29;;;;;;;5.65;1.50;;;17.60;99.90;;;;;;4953949;28;20195;-84